Alex, Louisiana
Current Conditions -  °F | °C
As of 7:38 AM on Thursday 30 Oct 2014 (Local Time) from KAEX Reporting Station
Moderate Fog Moderate Fog  
Wind Chill: 43°   Ceiling: 200
Heat Index: 43°   Visibility: 0.25mi
Dew Point: 43°   Wind: 3mph
Humidity: 100%   Direction: 220°SW
Pressure: 30.13"   Gusts: NA
Location:  31.2081°N, 92.3683°W
Report Text: KAEX 301238Z 22003KT 1/4SM FG VV002 06/06 A3013 RMK AO2 T00610061
Loading
Personal Weather Stations






























Interactive Weather Map
Tropical Storm Tracking
New forecast layout! Learn more

10-Day Weather Forecast

Advertisements
Track Severe Weather on mobile